NDF12E LKPR-EDDH
Flight info
| Callsign | NDF12E |
|---|---|
| Flight time | 0h 54m |
| Altitude | 34000 |
| Route | VENOX5N VENOX DCT DEKOV Y621 ESLOR M748 RARUP RARUP3P |
| Aircraft | A321/M-SDE3FGHIRWY/LB1 |
Departure
| Time | 2026-05-04 18:51 |
|---|---|
| Airport | Václav Havel Airport Prague (LKPR) |
Arrival
| Time | 2026-05-04 19:46 |
|---|---|
| Airport | Hamburg Helmut Schmidt Airport (EDDH) |
| Time | Latitude | Longitude | Altitude | Speed | Heading |
|---|---|---|---|---|---|
| 2026-05-04 18:12 | 50.10701 | 14.26383 | 1174 ft | 0 kts | 214° |
| 2026-05-04 18:39 | 50.10701 | 14.26384 | 1174 ft | 1 kts | 214° |
| 2026-05-04 18:39 | 50.10721 | 14.26405 | 1170 ft | 4 kts | 221° |
| 2026-05-04 18:39 | 50.10734 | 14.26431 | 1169 ft | 4 kts | 284° |
| 2026-05-04 18:39 | 50.10723 | 14.26461 | 1169 ft | 4 kts | 304° |
| 2026-05-04 18:40 | 50.10714 | 14.26482 | 1171 ft | 0 kts | 304° |
| 2026-05-04 18:44 | 50.10720 | 14.26469 | 1172 ft | 4 kts | 304° |
| 2026-05-04 18:44 | 50.10740 | 14.26423 | 1169 ft | 6 kts | 304° |
| 2026-05-04 18:45 | 50.10775 | 14.26344 | 1173 ft | 12 kts | 304° |
| 2026-05-04 18:45 | 50.10778 | 14.26232 | 1170 ft | 12 kts | 225° |
| 2026-05-04 18:45 | 50.10706 | 14.26151 | 1171 ft | 14 kts | 214° |
| 2026-05-04 18:45 | 50.10622 | 14.26065 | 1172 ft | 15 kts | 212° |
| 2026-05-04 18:46 | 50.10535 | 14.25984 | 1174 ft | 13 kts | 202° |
| 2026-05-04 18:46 | 50.10467 | 14.26048 | 1174 ft | 13 kts | 127° |
| 2026-05-04 18:46 | 50.10412 | 14.26160 | 1175 ft | 14 kts | 127° |
| 2026-05-04 18:46 | 50.10351 | 14.26286 | 1173 ft | 16 kts | 127° |
| 2026-05-04 18:47 | 50.10280 | 14.26432 | 1174 ft | 18 kts | 127° |
| 2026-05-04 18:47 | 50.10206 | 14.26588 | 1175 ft | 18 kts | 127° |
| 2026-05-04 18:47 | 50.10124 | 14.26754 | 1182 ft | 19 kts | 127° |
| 2026-05-04 18:47 | 50.10049 | 14.26909 | 1192 ft | 19 kts | 128° |
| 2026-05-04 18:48 | 50.09973 | 14.27065 | 1198 ft | 17 kts | 126° |
| 2026-05-04 18:48 | 50.09904 | 14.27210 | 1201 ft | 16 kts | 126° |
| 2026-05-04 18:48 | 50.09828 | 14.27350 | 1204 ft | 19 kts | 136° |
| 2026-05-04 18:48 | 50.09729 | 14.27505 | 1206 ft | 21 kts | 134° |
| 2026-05-04 18:49 | 50.09630 | 14.27660 | 1210 ft | 19 kts | 138° |
| 2026-05-04 18:49 | 50.09531 | 14.27807 | 1213 ft | 20 kts | 136° |
| 2026-05-04 18:49 | 50.09435 | 14.27956 | 1216 ft | 19 kts | 135° |
| 2026-05-04 18:49 | 50.09334 | 14.28109 | 1215 ft | 21 kts | 136° |
| 2026-05-04 18:50 | 50.09229 | 14.28264 | 1212 ft | 20 kts | 145° |
| 2026-05-04 18:50 | 50.09128 | 14.28242 | 1211 ft | 15 kts | 218° |
| 2026-05-04 18:50 | 50.09087 | 14.28094 | 1208 ft | 18 kts | 289° |
| 2026-05-04 18:50 | 50.09202 | 14.27841 | 1211 ft | 58 kts | 307° |
| 2026-05-04 18:51 | 50.09598 | 14.27023 | 1207 ft | 129 kts | 307° |
| 2026-05-04 18:51 | 50.10255 | 14.25679 | 1312 ft | 173 kts | 308° |
| 2026-05-04 18:51 | 50.11006 | 14.24147 | 1858 ft | 182 kts | 313° |
| 2026-05-04 18:51 | 50.12089 | 14.23227 | 2547 ft | 180 kts | 359° |
| 2026-05-04 18:52 | 50.13308 | 14.23572 | 3230 ft | 180 kts | 17° |
| 2026-05-04 18:52 | 50.14578 | 14.24123 | 3509 ft | 200 kts | 17° |
| 2026-05-04 18:52 | 50.15982 | 14.24736 | 3680 ft | 220 kts | 17° |
| 2026-05-04 18:52 | 50.17524 | 14.25329 | 3841 ft | 239 kts | 8° |
| 2026-05-04 18:53 | 50.19219 | 14.25033 | 4120 ft | 259 kts | 345° |
| 2026-05-04 18:53 | 50.21016 | 14.24266 | 4673 ft | 272 kts | 345° |
| 2026-05-04 18:53 | 50.22853 | 14.23472 | 5468 ft | 276 kts | 345° |
| 2026-05-04 18:53 | 50.24717 | 14.22665 | 6296 ft | 279 kts | 344° |
| 2026-05-04 18:54 | 50.26596 | 14.21847 | 7094 ft | 281 kts | 343° |
| 2026-05-04 18:54 | 50.28497 | 14.21071 | 7887 ft | 285 kts | 346° |
| 2026-05-04 18:54 | 50.30450 | 14.20449 | 8670 ft | 288 kts | 347° |
| 2026-05-04 18:54 | 50.32435 | 14.19883 | 9466 ft | 292 kts | 347° |
| 2026-05-04 18:55 | 50.34454 | 14.19332 | 10191 ft | 298 kts | 346° |
| 2026-05-04 18:55 | 50.38840 | 14.18116 | 10733 ft | 339 kts | 347° |
| 2026-05-04 18:55 | 50.41158 | 14.17470 | 11318 ft | 346 kts | 347° |
| 2026-05-04 18:56 | 50.43547 | 14.16802 | 11984 ft | 351 kts | 347° |
| 2026-05-04 18:56 | 50.45973 | 14.16120 | 12674 ft | 356 kts | 346° |
| 2026-05-04 18:56 | 50.48425 | 14.15423 | 13369 ft | 360 kts | 346° |
| 2026-05-04 18:56 | 50.50900 | 14.14712 | 14050 ft | 363 kts | 346° |
| 2026-05-04 18:57 | 50.53399 | 14.13994 | 14682 ft | 367 kts | 347° |
| 2026-05-04 18:57 | 50.55957 | 14.13669 | 15318 ft | 373 kts | 359° |
| 2026-05-04 18:57 | 50.58560 | 14.14091 | 15978 ft | 378 kts | 6° |
| 2026-05-04 18:57 | 50.61130 | 14.14718 | 16647 ft | 380 kts | 7° |
| 2026-05-04 18:58 | 50.63750 | 14.15357 | 17308 ft | 383 kts | 7° |
| 2026-05-04 18:58 | 50.66395 | 14.16000 | 17970 ft | 385 kts | 7° |
| 2026-05-04 18:58 | 50.69054 | 14.16644 | 18566 ft | 388 kts | 7° |
| 2026-05-04 18:58 | 50.71729 | 14.17289 | 19125 ft | 391 kts | 7° |
| 2026-05-04 18:59 | 50.74435 | 14.17943 | 19648 ft | 395 kts | 7° |
| 2026-05-04 18:59 | 50.77161 | 14.18603 | 20212 ft | 398 kts | 7° |
| 2026-05-04 18:59 | 50.79909 | 14.19269 | 20767 ft | 401 kts | 6° |
| 2026-05-04 18:59 | 50.82671 | 14.19936 | 21343 ft | 404 kts | 6° |
| 2026-05-04 19:00 | 50.85459 | 14.20607 | 21874 ft | 407 kts | 6° |
| 2026-05-04 19:00 | 50.88245 | 14.21232 | 22373 ft | 410 kts | 2° |
| 2026-05-04 19:00 | 50.91090 | 14.21170 | 22883 ft | 410 kts | 348° |
| 2026-05-04 19:00 | 50.93809 | 14.19925 | 23394 ft | 407 kts | 332° |
| 2026-05-04 19:01 | 50.96228 | 14.17626 | 23827 ft | 406 kts | 323° |
| 2026-05-04 19:01 | 50.98565 | 14.15113 | 23941 ft | 405 kts | 322° |
| 2026-05-04 19:01 | 51.00885 | 14.12584 | 23975 ft | 405 kts | 322° |
| 2026-05-04 19:01 | 51.03208 | 14.10029 | 24205 ft | 407 kts | 322° |
| 2026-05-04 19:02 | 51.05542 | 14.07457 | 24667 ft | 409 kts | 322° |
| 2026-05-04 19:02 | 51.07894 | 14.04877 | 25111 ft | 411 kts | 322° |
| 2026-05-04 19:02 | 51.10256 | 14.02297 | 25538 ft | 414 kts | 322° |
| 2026-05-04 19:02 | 51.12635 | 13.99702 | 25960 ft | 416 kts | 322° |
| 2026-05-04 19:03 | 51.14995 | 13.97120 | 26371 ft | 418 kts | 322° |
| 2026-05-04 19:03 | 51.17398 | 13.94485 | 26778 ft | 420 kts | 322° |
| 2026-05-04 19:03 | 51.19812 | 13.91837 | 27184 ft | 423 kts | 322° |
| 2026-05-04 19:03 | 51.22235 | 13.89176 | 27590 ft | 425 kts | 321° |
| 2026-05-04 19:04 | 51.24524 | 13.86659 | 28002 ft | 426 kts | 321° |
| 2026-05-04 19:04 | 51.26973 | 13.83959 | 28412 ft | 428 kts | 321° |
| 2026-05-04 19:04 | 51.29427 | 13.81251 | 28805 ft | 430 kts | 321° |
| 2026-05-04 19:04 | 51.31893 | 13.78530 | 29191 ft | 432 kts | 321° |
| 2026-05-04 19:05 | 51.34369 | 13.75794 | 29569 ft | 434 kts | 321° |
| 2026-05-04 19:05 | 51.36824 | 13.73075 | 29933 ft | 436 kts | 321° |
| 2026-05-04 19:05 | 51.39320 | 13.70301 | 30249 ft | 438 kts | 321° |
| 2026-05-04 19:05 | 51.41825 | 13.67510 | 30559 ft | 440 kts | 321° |
| 2026-05-04 19:06 | 51.44158 | 13.64910 | 30839 ft | 442 kts | 321° |
| 2026-05-04 19:06 | 51.46593 | 13.62044 | 31164 ft | 441 kts | 316° |
| 2026-05-04 19:06 | 51.48894 | 13.58811 | 31483 ft | 441 kts | 314° |
| 2026-05-04 19:06 | 51.51193 | 13.55550 | 31920 ft | 440 kts | 314° |
| 2026-05-04 19:07 | 51.53483 | 13.52301 | 32389 ft | 438 kts | 314° |
| 2026-05-04 19:07 | 51.55763 | 13.49063 | 32839 ft | 437 kts | 314° |
| 2026-05-04 19:07 | 51.58034 | 13.45836 | 33284 ft | 435 kts | 314° |
| 2026-05-04 19:07 | 51.60300 | 13.42615 | 33730 ft | 434 kts | 314° |
| 2026-05-04 19:08 | 51.62529 | 13.39442 | 33920 ft | 433 kts | 314° |
| 2026-05-04 19:08 | 51.64590 | 13.36512 | 33949 ft | 424 kts | 315° |
| 2026-05-04 19:08 | 51.69042 | 13.30417 | 33945 ft | 418 kts | 316° |
| 2026-05-04 19:09 | 51.73523 | 13.24440 | 33944 ft | 418 kts | 316° |
| 2026-05-04 19:09 | 51.77999 | 13.18441 | 33944 ft | 418 kts | 315° |
| 2026-05-04 19:10 | 51.82421 | 13.12425 | 33950 ft | 416 kts | 315° |
| 2026-05-04 19:10 | 51.86801 | 13.06416 | 33958 ft | 416 kts | 315° |
| 2026-05-04 19:11 | 51.91217 | 13.00369 | 33960 ft | 416 kts | 315° |
| 2026-05-04 19:11 | 51.95641 | 12.94313 | 33962 ft | 416 kts | 315° |
| 2026-05-04 19:12 | 52.02257 | 12.85228 | 33964 ft | 416 kts | 315° |
| 2026-05-04 19:13 | 52.06665 | 12.79122 | 33975 ft | 416 kts | 314° |
| 2026-05-04 19:13 | 52.11045 | 12.73067 | 33989 ft | 416 kts | 314° |
| 2026-05-04 19:14 | 52.15450 | 12.66963 | 33984 ft | 416 kts | 314° |
| 2026-05-04 19:14 | 52.19842 | 12.60838 | 33978 ft | 415 kts | 314° |
| 2026-05-04 19:15 | 52.24228 | 12.54712 | 33975 ft | 415 kts | 314° |
| 2026-05-04 19:15 | 52.28612 | 12.48570 | 33973 ft | 415 kts | 314° |
| 2026-05-04 19:16 | 52.32962 | 12.42466 | 33976 ft | 415 kts | 314° |
| 2026-05-04 19:16 | 52.37343 | 12.36296 | 33997 ft | 415 kts | 313° |
| 2026-05-04 19:17 | 52.41713 | 12.30127 | 33990 ft | 414 kts | 313° |
| 2026-05-04 19:17 | 52.46068 | 12.23971 | 33984 ft | 413 kts | 313° |
| 2026-05-04 19:18 | 52.50378 | 12.17863 | 33684 ft | 410 kts | 313° |
| 2026-05-04 19:18 | 52.52525 | 12.14824 | 33259 ft | 405 kts | 313° |
| 2026-05-04 19:18 | 52.54654 | 12.11805 | 32852 ft | 402 kts | 313° |
| 2026-05-04 19:18 | 52.56762 | 12.08809 | 32448 ft | 400 kts | 313° |
| 2026-05-04 19:19 | 52.58857 | 12.05820 | 32052 ft | 398 kts | 313° |
| 2026-05-04 19:19 | 52.60947 | 12.02828 | 31735 ft | 398 kts | 313° |
| 2026-05-04 19:19 | 52.63027 | 11.99845 | 31402 ft | 396 kts | 313° |
| 2026-05-04 19:19 | 52.65107 | 11.96877 | 31093 ft | 395 kts | 314° |
| 2026-05-04 19:20 | 52.67221 | 11.93980 | 30597 ft | 396 kts | 315° |
| 2026-05-04 19:20 | 52.69369 | 11.91136 | 29951 ft | 394 kts | 315° |
| 2026-05-04 19:20 | 52.71507 | 11.88354 | 29255 ft | 389 kts | 316° |
| 2026-05-04 19:20 | 52.73588 | 11.85650 | 28568 ft | 384 kts | 315° |
| 2026-05-04 19:21 | 52.75676 | 11.82920 | 27915 ft | 383 kts | 315° |
| 2026-05-04 19:21 | 52.77758 | 11.80170 | 27398 ft | 382 kts | 315° |
| 2026-05-04 19:21 | 52.79828 | 11.77417 | 26868 ft | 382 kts | 315° |
| 2026-05-04 19:21 | 52.81891 | 11.74659 | 26362 ft | 381 kts | 315° |
| 2026-05-04 19:22 | 52.83951 | 11.71901 | 25858 ft | 381 kts | 315° |
| 2026-05-04 19:22 | 52.86012 | 11.69142 | 25365 ft | 381 kts | 315° |
| 2026-05-04 19:22 | 52.88055 | 11.66404 | 24889 ft | 375 kts | 315° |
| 2026-05-04 19:22 | 52.90060 | 11.63719 | 24406 ft | 366 kts | 315° |
| 2026-05-04 19:23 | 52.92022 | 11.61091 | 23948 ft | 360 kts | 315° |
| 2026-05-04 19:23 | 52.93956 | 11.58494 | 23464 ft | 357 kts | 315° |
| 2026-05-04 19:23 | 52.95850 | 11.55944 | 22921 ft | 354 kts | 315° |
| 2026-05-04 19:23 | 52.97754 | 11.53374 | 22290 ft | 352 kts | 315° |
| 2026-05-04 19:24 | 52.99651 | 11.50800 | 21636 ft | 354 kts | 315° |
| 2026-05-04 19:24 | 53.01556 | 11.48208 | 20985 ft | 352 kts | 316° |
| 2026-05-04 19:24 | 53.03443 | 11.45648 | 20353 ft | 348 kts | 316° |
| 2026-05-04 19:24 | 53.05306 | 11.43125 | 19734 ft | 343 kts | 316° |
| 2026-05-04 19:25 | 53.07145 | 11.40633 | 19126 ft | 340 kts | 316° |
| 2026-05-04 19:25 | 53.08976 | 11.38149 | 18536 ft | 341 kts | 316° |
| 2026-05-04 19:25 | 53.10817 | 11.35647 | 17990 ft | 342 kts | 317° |
| 2026-05-04 19:25 | 53.12660 | 11.33142 | 17456 ft | 342 kts | 317° |
| 2026-05-04 19:26 | 53.14497 | 11.30643 | 16932 ft | 341 kts | 317° |
| 2026-05-04 19:26 | 53.16296 | 11.28193 | 16415 ft | 334 kts | 317° |
| 2026-05-04 19:26 | 53.18076 | 11.25768 | 15969 ft | 329 kts | 317° |
| 2026-05-04 19:26 | 53.19834 | 11.23364 | 15593 ft | 325 kts | 317° |
| 2026-05-04 19:27 | 53.21572 | 11.20983 | 15229 ft | 322 kts | 317° |
| 2026-05-04 19:27 | 53.23294 | 11.18626 | 14867 ft | 318 kts | 317° |
| 2026-05-04 19:27 | 53.24998 | 11.16293 | 14504 ft | 315 kts | 317° |
| 2026-05-04 19:27 | 53.26681 | 11.13985 | 14144 ft | 312 kts | 317° |
| 2026-05-04 19:28 | 53.28355 | 11.11688 | 13794 ft | 311 kts | 317° |
| 2026-05-04 19:28 | 53.30023 | 11.09401 | 13396 ft | 309 kts | 317° |
| 2026-05-04 19:28 | 53.31680 | 11.07123 | 12999 ft | 307 kts | 317° |
| 2026-05-04 19:28 | 53.33322 | 11.04862 | 12604 ft | 305 kts | 317° |
| 2026-05-04 19:29 | 53.34933 | 11.02636 | 12226 ft | 304 kts | 317° |
| 2026-05-04 19:29 | 53.36555 | 11.00391 | 11842 ft | 302 kts | 317° |
| 2026-05-04 19:29 | 53.38139 | 10.98108 | 11463 ft | 298 kts | 310° |
| 2026-05-04 19:29 | 53.39462 | 10.95468 | 11090 ft | 295 kts | 305° |
| 2026-05-04 19:30 | 53.40715 | 10.92771 | 10810 ft | 293 kts | 304° |
| 2026-05-04 19:30 | 53.41960 | 10.90075 | 10562 ft | 292 kts | 304° |
| 2026-05-04 19:30 | 53.43199 | 10.87396 | 10313 ft | 288 kts | 306° |
| 2026-05-04 19:30 | 53.44680 | 10.85187 | 10070 ft | 288 kts | 328° |
| 2026-05-04 19:31 | 53.46483 | 10.83793 | 9833 ft | 289 kts | 334° |
| 2026-05-04 19:31 | 53.48342 | 10.82513 | 9571 ft | 288 kts | 334° |
| 2026-05-04 19:31 | 53.50197 | 10.81249 | 9305 ft | 287 kts | 334° |
| 2026-05-04 19:31 | 53.52039 | 10.79997 | 9053 ft | 285 kts | 334° |
| 2026-05-04 19:32 | 53.53875 | 10.78763 | 8791 ft | 283 kts | 334° |
| 2026-05-04 19:32 | 53.55698 | 10.77537 | 8532 ft | 282 kts | 335° |
| 2026-05-04 19:32 | 53.57514 | 10.76312 | 8273 ft | 281 kts | 334° |
| 2026-05-04 19:32 | 53.59323 | 10.75088 | 8025 ft | 280 kts | 334° |
| 2026-05-04 19:33 | 53.61128 | 10.73864 | 7770 ft | 279 kts | 335° |
| 2026-05-04 19:33 | 53.62914 | 10.72648 | 7513 ft | 274 kts | 334° |
| 2026-05-04 19:33 | 53.64641 | 10.71475 | 7261 ft | 262 kts | 334° |
| 2026-05-04 19:33 | 53.66302 | 10.70350 | 7056 ft | 252 kts | 334° |
| 2026-05-04 19:34 | 53.67901 | 10.69270 | 6958 ft | 244 kts | 334° |
| 2026-05-04 19:34 | 53.69476 | 10.68209 | 6970 ft | 244 kts | 334° |
| 2026-05-04 19:34 | 53.71029 | 10.67159 | 6972 ft | 244 kts | 334° |
| 2026-05-04 19:34 | 53.72605 | 10.66092 | 6863 ft | 244 kts | 334° |
| 2026-05-04 19:35 | 53.74172 | 10.65030 | 6622 ft | 242 kts | 334° |
| 2026-05-04 19:35 | 53.75729 | 10.63972 | 6377 ft | 241 kts | 334° |
| 2026-05-04 19:35 | 53.77279 | 10.62915 | 6120 ft | 240 kts | 334° |
| 2026-05-04 19:35 | 53.78822 | 10.61879 | 5885 ft | 237 kts | 334° |
| 2026-05-04 19:36 | 53.80353 | 10.60888 | 5684 ft | 235 kts | 334° |
| 2026-05-04 19:36 | 53.81876 | 10.59900 | 5549 ft | 235 kts | 334° |
| 2026-05-04 19:36 | 53.83398 | 10.58906 | 5422 ft | 234 kts | 335° |
| 2026-05-04 19:36 | 53.84905 | 10.57875 | 5293 ft | 232 kts | 329° |
| 2026-05-04 19:37 | 53.86047 | 10.56128 | 5167 ft | 224 kts | 298° |
| 2026-05-04 19:37 | 53.86432 | 10.53631 | 5064 ft | 221 kts | 270° |
| 2026-05-04 19:37 | 53.86355 | 10.51034 | 4980 ft | 221 kts | 265° |
| 2026-05-04 19:37 | 53.86223 | 10.48442 | 4981 ft | 220 kts | 264° |
| 2026-05-04 19:38 | 53.85903 | 10.45919 | 4979 ft | 221 kts | 246° |
| 2026-05-04 19:38 | 53.85027 | 10.43776 | 4991 ft | 223 kts | 232° |
| 2026-05-04 19:38 | 53.84043 | 10.41760 | 4978 ft | 222 kts | 232° |
| 2026-05-04 19:38 | 53.83059 | 10.39738 | 4982 ft | 223 kts | 232° |
| 2026-05-04 19:39 | 53.82076 | 10.37713 | 4984 ft | 223 kts | 232° |
| 2026-05-04 19:39 | 53.81109 | 10.35724 | 4977 ft | 211 kts | 232° |
| 2026-05-04 19:39 | 53.80243 | 10.33947 | 4997 ft | 186 kts | 233° |
| 2026-05-04 19:39 | 53.79456 | 10.32330 | 4859 ft | 173 kts | 232° |
| 2026-05-04 19:40 | 53.78700 | 10.30775 | 4681 ft | 170 kts | 232° |
| 2026-05-04 19:40 | 53.77950 | 10.29234 | 4462 ft | 169 kts | 232° |
| 2026-05-04 19:40 | 53.77201 | 10.27699 | 4236 ft | 169 kts | 232° |
| 2026-05-04 19:40 | 53.76452 | 10.26162 | 4011 ft | 170 kts | 232° |
| 2026-05-04 19:41 | 53.75702 | 10.24627 | 3786 ft | 169 kts | 232° |
| 2026-05-04 19:41 | 53.74954 | 10.23096 | 3562 ft | 169 kts | 232° |
| 2026-05-04 19:41 | 53.74204 | 10.21561 | 3333 ft | 169 kts | 232° |
| 2026-05-04 19:41 | 53.73455 | 10.20030 | 3106 ft | 169 kts | 232° |
| 2026-05-04 19:42 | 53.72713 | 10.18515 | 2884 ft | 170 kts | 232° |
| 2026-05-04 19:42 | 53.71962 | 10.16981 | 2658 ft | 170 kts | 232° |
| 2026-05-04 19:42 | 53.71207 | 10.15439 | 2430 ft | 170 kts | 232° |
| 2026-05-04 19:42 | 53.70450 | 10.13897 | 2197 ft | 171 kts | 232° |
| 2026-05-04 19:43 | 53.69692 | 10.12351 | 1982 ft | 172 kts | 232° |
| 2026-05-04 19:43 | 53.68959 | 10.10860 | 1744 ft | 160 kts | 233° |
| 2026-05-04 19:43 | 53.68259 | 10.09435 | 1537 ft | 151 kts | 232° |
| 2026-05-04 19:43 | 53.67601 | 10.08096 | 1326 ft | 146 kts | 233° |
| 2026-05-04 19:44 | 53.66968 | 10.06808 | 1126 ft | 143 kts | 233° |
| 2026-05-04 19:44 | 53.66334 | 10.05520 | 940 ft | 142 kts | 232° |
| 2026-05-04 19:44 | 53.65704 | 10.04240 | 743 ft | 141 kts | 232° |
| 2026-05-04 19:44 | 53.65076 | 10.02963 | 552 ft | 141 kts | 233° |
| 2026-05-04 19:45 | 53.64447 | 10.01690 | 366 ft | 141 kts | 232° |
| 2026-05-04 19:45 | 53.63826 | 10.00426 | 204 ft | 140 kts | 232° |
| 2026-05-04 19:45 | 53.63210 | 9.99179 | 47 ft | 130 kts | 232° |
| 2026-05-04 19:45 | 53.62744 | 9.98223 | 43 ft | 81 kts | 230° |
| 2026-05-04 19:46 | 53.62535 | 9.97805 | 41 ft | 18 kts | 214° |
| 2026-05-04 19:46 | 53.62434 | 9.97854 | 44 ft | 16 kts | 115° |
| 2026-05-04 19:46 | 53.62444 | 9.98022 | 47 ft | 15 kts | 71° |
| 2026-05-04 19:46 | 53.62502 | 9.98174 | 47 ft | 17 kts | 50° |
| 2026-05-04 19:47 | 53.62581 | 9.98329 | 47 ft | 18 kts | 49° |
| 2026-05-04 19:47 | 53.62667 | 9.98502 | 47 ft | 20 kts | 50° |
| 2026-05-04 19:47 | 53.62759 | 9.98691 | 47 ft | 22 kts | 50° |
| 2026-05-04 19:47 | 53.62859 | 9.98893 | 47 ft | 23 kts | 51° |
| 2026-05-04 19:48 | 53.62947 | 9.99074 | 47 ft | 16 kts | 50° |
| 2026-05-04 19:48 | 53.63016 | 9.99213 | 47 ft | 16 kts | 50° |
| 2026-05-04 19:48 | 53.63072 | 9.99335 | 47 ft | 8 kts | 55° |
| 2026-05-04 19:48 | 53.63080 | 9.99354 | 47 ft | 0 kts | 56° |
| 2026-05-04 19:49 | 53.63090 | 9.99379 | 47 ft | 8 kts | 56° |
| 2026-05-04 19:49 | 53.63140 | 9.99501 | 46 ft | 16 kts | 51° |
| 2026-05-04 19:49 | 53.63193 | 9.99612 | 47 ft | 9 kts | 53° |
| 2026-05-04 19:49 | 53.63235 | 9.99693 | 48 ft | 10 kts | 44° |
| 2026-05-04 19:50 | 53.63289 | 9.99781 | 49 ft | 12 kts | 46° |
| 2026-05-04 19:50 | 53.63345 | 9.99897 | 49 ft | 14 kts | 51° |
| 2026-05-04 19:50 | 53.63411 | 10.00030 | 49 ft | 16 kts | 50° |
| 2026-05-04 19:50 | 53.63446 | 10.00191 | 48 ft | 12 kts | 87° |
| 2026-05-04 19:51 | 53.63450 | 10.00294 | 48 ft | 4 kts | 86° |
| 2026-05-04 19:51 | 53.63450 | 10.00310 | 49 ft | 2 kts | 86° |
| 2026-05-04 19:51 | 53.63451 | 10.00317 | 49 ft | 0 kts | 86° |